This is the latest recevied weather packets stored in our database for station/object HB9CYX-13. If no packets are shown the sender has not sent any weather packets the latest 10 day(s).
| Time | Temp. | Humidity | Pressure | Rain* | Wind** | Luminosity | Snow |
|---|---|---|---|---|---|---|---|
| 1777749195 | 18.33° C | 52% | 1017.4 hPa | 0 mm | - | - | - |
| 1777748457 | 18.33° C | 53% | 1017.3 hPa | 0 mm | - | - | - |
| 1777747720 | 18.33° C | 50% | 1017.2 hPa | 0 mm | - | - | - |
| 1777746982 | 19.44° C | 48% | 1016.9 hPa | 0 mm | - | - | - |
| 1777746244 | 20.56° C | 47% | 1016.6 hPa | 0 mm | - | - | - |
| 1777745506 | 21.11° C | 45% | 1016.6 hPa | 0 mm | - | - | - |
| 1777744768 | 21.67° C | 43% | 1016.3 hPa | 0 mm | - | - | - |
| 1777744030 | 22.78° C | 41% | 1016.2 hPa | 0 mm | - | - | - |
| 1777743292 | 23.33° C | 39% | 1016.1 hPa | 0 mm | - | - | - |
| 1777738807 | 28.33° C | 25% | 1015.6 hPa | 0 mm | - | - | - |
| 1777738066 | 28.89° C | 25% | 1015.7 hPa | 0 mm | - | - | - |
| 1777737324 | 27.78° C | 27% | 1016 hPa | 0 mm | - | - | - |
| 1777736582 | 26.67° C | 27% | 1016.2 hPa | 0 mm | - | - | - |
| 1777735841 | 29.44° C | 24% | 1015.9 hPa | 0 mm | - | - | - |
| 1777735100 | 30° C | 24% | 1015.9 hPa | 0 mm | - | - | - |
| 1777734358 | 28.89° C | 25% | 1016.1 hPa | 0 mm | - | - | - |
| 1777733616 | 30° C | 25% | 1016.1 hPa | 0 mm | - | - | - |
| 1777732875 | 28.89° C | 25% | 1016.5 hPa | 0 mm | - | - | - |
| 1777732133 | 28.89° C | 25% | 1016.7 hPa | 0 mm | - | - | - |
| 1777731392 | 29.44° C | 26% | 1016.8 hPa | 0 mm | - | - | - |
| 1777730650 | 28.89° C | 27% | 1017.2 hPa | 0 mm | - | - | - |
| 1777729909 | 26.11° C | 28% | 1017.9 hPa | 0 mm | - | - | - |
| 1777729167 | 28.33° C | 28% | 1017.7 hPa | 0 mm | - | - | - |
| 1777728426 | 27.78° C | 28% | 1017.9 hPa | 0 mm | - | - | - |
| 1777727684 | 28.89° C | 28% | 1017.9 hPa | 0 mm | - | - | - |
* Rain latest hour (hover to see other rain measurements)
** Current wind speed in m/s (hover to see current wind gust speed)